Time;durP1;ratioP1;P1;durP2;ratioP2;P2;SDS_P1;SDS_P2;PMS_P1;PMS_P2;Temp;Humidity;BMP_temperature;BMP_pressure;BME280_temperature;BME280_humidity;BME280_pressure;Samples;Min_cycle;Max_cycle;Signal;HPM_P1;HPM_P2
2023/08/08 00:00:53;;;;;;;2.22;1.17;;;;;;;9.43;91.43;96142.28;2066677;28;20073;-60
2023/08/08 00:01:55;;;;;;;2.65;1.50;;;;;;;9.42;91.12;96138.03;2066847;28;20053;-60
2023/08/08 00:02:56;;;;;;;3.70;1.55;;;;;;;9.43;91.45;96139.69;2066693;28;20065;-60
2023/08/08 00:03:58;;;;;;;1.92;1.30;;;;;;;9.41;91.42;96132.00;2066762;28;20054;-60
2023/08/08 00:04:59;;;;;;;2.95;1.70;;;;;;;9.40;91.52;96130.28;2066872;28;20045;-60
2023/08/08 00:06:00;;;;;;;2.92;1.40;;;;;;;9.36;91.44;96131.34;2066573;28;20343;-60
2023/08/08 00:07:02;;;;;;;4.18;1.45;;;;;;;9.42;91.46;96138.03;2066737;28;20402;-60
2023/08/08 00:08:04;;;;;;;2.75;1.30;;;;;;;9.37;91.51;96133.00;2066760;28;20433;-61
2023/08/08 00:09:06;;;;;;;2.78;1.35;;;;;;;9.40;90.92;96140.66;2066551;28;20527;-60
2023/08/08 00:10:08;;;;;;;2.28;1.40;;;;;;;9.38;90.99;96137.31;2065607;28;20394;-60
2023/08/08 00:11:09;;;;;;;2.95;1.30;;;;;;;9.39;90.99;96138.16;2066493;28;20391;-60
2023/08/08 00:12:11;;;;;;;2.30;1.50;;;;;;;9.38;90.81;96129.53;2066277;28;20047;-60
2023/08/08 00:13:13;;;;;;;3.05;1.30;;;;;;;9.35;91.52;96134.81;2066217;28;20513;-61
2023/08/08 00:14:14;;;;;;;2.03;1.30;;;;;;;9.36;91.22;96133.94;2066844;28;20401;-60
2023/08/08 00:15:16;;;;;;;2.25;1.35;;;;;;;9.37;91.21;96130.41;2066755;28;20050;-60
2023/08/08 00:16:17;;;;;;;2.83;1.33;;;;;;;9.38;90.89;96137.31;2066280;28;20054;-60
2023/08/08 00:17:18;;;;;;;2.75;1.50;;;;;;;9.37;90.84;96140.78;2066929;28;20517;-60
2023/08/08 00:18:20;;;;;;;2.42;1.00;;;;;;;9.39;91.11;96138.97;2065560;28;20433;-61
2023/08/08 00:19:21;;;;;;;3.42;1.30;;;;;;;9.38;90.44;96139.03;2066175;28;20054;-60
2023/08/08 00:20:23;;;;;;;3.55;1.48;;;;;;;9.36;90.66;96131.34;2066149;28;20058;-60
2023/08/08 00:21:24;;;;;;;2.10;1.33;;;;;;;9.37;90.61;96133.00;2066040;28;20658;-60
2023/08/08 00:22:25;;;;;;;4.95;1.40;;;;;;;9.39;90.75;96131.22;2066645;28;20458;-60
2023/08/08 00:23:27;;;;;;;1.70;1.08;;;;;;;9.38;90.32;96126.94;2066438;28;20486;-60
2023/08/08 00:24:28;;;;;;;2.38;1.30;;;;;;;9.36;90.74;96133.94;2066401;28;20525;-60
2023/08/08 00:25:29;;;;;;;2.45;1.42;;;;;;;9.36;90.82;96133.94;2066764;28;20423;-60
2023/08/08 00:26:31;;;;;;;2.88;1.15;;;;;;;9.33;90.93;96139.25;2057810;28;20415;-60
2023/08/08 00:27:32;;;;;;;2.78;1.40;;;;;;;9.32;90.70;96137.53;2058003;28;20503;-60
2023/08/08 00:28:35;;;;;;;3.90;1.52;;;;;;;9.33;90.42;96140.97;2057903;28;20538;-61
2023/08/08 00:29:36;;;;;;;7.57;1.35;;;;;;;9.30;90.85;96130.72;2058030;28;20062;-60
2023/08/08 00:30:38;;;;;;;3.40;1.20;;;;;;;9.26;90.89;96133.44;2066447;28;20498;-61
2023/08/08 00:31:39;;;;;;;3.10;1.48;;;;;;;9.25;90.30;96131.75;2065951;28;20478;-60
2023/08/08 00:32:40;;;;;;;4.53;1.20;;;;;;;9.27;90.81;96136.88;2057544;28;20518;-60
2023/08/08 00:33:42;;;;;;;2.78;1.23;;;;;;;9.25;90.74;96133.53;2049772;28;20491;-60
2023/08/08 00:34:43;;;;;;;4.15;1.35;;;;;;;9.26;90.91;96127.41;2058057;28;20065;-60
2023/08/08 00:35:45;;;;;;;2.90;1.27;;;;;;;9.25;90.01;96139.53;2066514;28;20455;-60
2023/08/08 00:36:46;;;;;;;5.35;1.67;;;;;;;9.23;90.53;96133.56;2066578;28;20584;-61
2023/08/08 00:37:48;;;;;;;2.55;1.50;;;;;;;9.23;90.65;96130.97;2066581;28;20054;-60
2023/08/08 00:38:49;;;;;;;2.60;1.10;;;;;;;9.16;90.91;96126.09;2066555;28;20058;-61
2023/08/08 00:39:51;;;;;;;3.03;1.20;;;;;;;9.21;91.15;96126.75;2066637;28;20486;-61
2023/08/08 00:40:53;;;;;;;3.55;1.30;;;;;;;9.20;91.21;96136.28;2066625;28;20054;-60
2023/08/08 00:41:54;;;;;;;2.20;1.30;;;;;;;9.19;90.96;96131.97;2066503;28;20519;-60
2023/08/08 00:42:55;;;;;;;3.05;1.40;;;;;;;9.20;90.67;96138.88;2066566;28;20049;-61
2023/08/08 00:43:57;;;;;;;5.28;1.40;;;;;;;9.18;91.41;96135.50;2066587;28;20791;-60
2023/08/08 00:45:03;;;;;;;2.67;1.48;;;;;;;9.16;91.31;96136.44;2066484;28;20050;-60
2023/08/08 00:46:04;;;;;;;2.92;1.40;;;;;;;9.16;91.18;96136.44;2066145;28;20487;-60
2023/08/08 00:47:08;;;;;;;3.30;1.52;;;;;;;9.15;90.95;96130.44;2066015;28;20054;-60
2023/08/08 00:48:09;;;;;;;2.15;1.30;;;;;;;9.14;91.59;96139.13;2057722;28;20057;-61
2023/08/08 00:49:11;;;;;;;2.65;1.80;;;;;;;9.14;91.58;96133.06;2057465;28;20045;-61
2023/08/08 00:50:12;;;;;;;3.40;1.40;;;;;;;9.13;91.47;96128.81;2057282;28;20055;-61
2023/08/08 00:51:17;;;;;;;3.88;1.50;;;;;;;9.08;91.22;96128.97;2049948;28;20429;-61
2023/08/08 00:52:18;;;;;;;4.45;1.50;;;;;;;9.05;91.88;96135.13;2050173;28;20059;-61
2023/08/08 00:53:20;;;;;;;5.18;1.40;;;;;;;9.04;91.91;96135.19;2049293;28;20043;-60
2023/08/08 00:54:21;;;;;;;2.72;1.50;;;;;;;9.03;91.81;96129.19;2057795;28;20054;-60
2023/08/08 00:55:23;;;;;;;3.15;1.45;;;;;;;9.01;91.52;96132.72;2066326;28;20043;-60
2023/08/08 00:56:24;;;;;;;2.30;1.30;;;;;;;8.93;91.73;96125.25;2065573;28;20065;-61
2023/08/08 00:57:25;;;;;;;2.45;1.42;;;;;;;8.86;91.86;96120.38;2057491;28;20057;-61
2023/08/08 00:58:27;;;;;;;3.63;1.60;;;;;;;8.90;92.24;96133.16;2050078;28;20047;-60
2023/08/08 00:59:28;;;;;;;3.47;1.45;;;;;;;8.85;92.26;96129.88;2041712;29;20055;-61
2023/08/08 01:00:30;;;;;;;2.35;1.40;;;;;;;8.83;92.69;96123.91;2049709;28;20062;-61
2023/08/08 01:01:31;;;;;;;3.03;1.88;;;;;;;8.79;93.01;96124.91;2065694;28;20065;-60
2023/08/08 01:02:32;;;;;;;3.90;1.98;;;;;;;8.74;92.38;96119.94;2065375;28;20054;-60
2023/08/08 01:03:34;;;;;;;6.35;1.50;;;;;;;8.76;92.47;96127.63;2057729;28;20047;-60
2023/08/08 01:04:35;;;;;;;3.78;1.60;;;;;;;8.72;92.70;96126.91;2049905;28;20103;-60
2023/08/08 01:05:43;;;;;;;2.03;1.30;;;;;;;8.74;92.93;96124.25;2041848;29;20080;-60
2023/08/08 01:07:07;;;;;;;3.80;1.60;;;;;;;8.70;93.12;96120.09;2043482;28;20051;-60
2023/08/08 01:08:09;;;;;;;4.80;2.03;;;;;;;8.69;92.91;96118.44;2052701;28;20034;-60
2023/08/08 01:09:21;;;;;;;3.63;1.58;;;;;;;8.71;92.54;96125.22;2059752;28;20047;-60
2023/08/08 01:10:24;;;;;;;3.65;1.50;;;;;;;8.70;93.20;96127.88;2057997;28;20426;-61
2023/08/08 01:11:27;;;;;;;2.20;1.30;;;;;;;8.70;92.70;96120.94;2057930;28;20168;-60
2023/08/08 01:12:28;;;;;;;2.70;1.60;;;;;;;8.69;92.48;96121.00;2057801;28;20055;-60
2023/08/08 01:13:30;;;;;;;3.75;1.70;;;;;;;8.70;92.65;96117.50;2057680;28;20090;-60
2023/08/08 01:14:32;;;;;;;3.42;1.40;;;;;;;8.67;92.40;96113.28;2066064;28;20065;-60
2023/08/08 01:15:35;;;;;;;3.50;1.45;;;;;;;8.63;92.63;96106.53;2057561;28;20062;-60
2023/08/08 01:16:37;;;;;;;2.65;1.40;;;;;;;8.66;92.22;96105.56;2049783;28;20066;-61
2023/08/08 01:17:38;;;;;;;3.53;1.45;;;;;;;8.65;92.47;96106.50;2057937;28;20062;-60
2023/08/08 01:18:39;;;;;;;2.95;1.30;;;;;;;8.71;92.52;96108.84;2064905;28;20058;-60
2023/08/08 01:19:43;;;;;;;4.07;1.38;;;;;;;8.77;92.21;96111.22;2056788;28;20065;-60
2023/08/08 01:20:45;;;;;;;2.65;1.50;;;;;;;8.78;91.76;96102.53;2049842;28;20051;-60
2023/08/08 01:21:46;;;;;;;4.03;1.20;;;;;;;8.77;91.38;96103.44;2049322;28;20062;-60
2023/08/08 01:23:06;;;;;;;2.50;1.40;;;;;;;8.77;91.92;96103.44;2041636;29;20052;-60
2023/08/08 01:24:23;;;;;;;2.35;1.30;;;;;;;8.78;91.63;96105.13;2053687;28;20103;-61
2023/08/08 01:25:24;;;;;;;4.60;1.60;;;;;;;8.79;91.14;96104.22;2057570;28;20051;-60
2023/08/08 01:26:26;;;;;;;2.67;1.30;;;;;;;8.77;91.12;96103.44;2057632;28;20062;-60
2023/08/08 01:27:28;;;;;;;2.63;1.52;;;;;;;8.78;91.02;96103.38;2054050;28;20147;-61
2023/08/08 01:28:30;;;;;;;4.22;1.40;;;;;;;8.77;90.84;96099.09;2056845;28;20070;-60
2023/08/08 01:29:31;;;;;;;2.97;1.35;;;;;;;8.72;90.56;96093.25;2065618;28;20058;-60
2023/08/08 01:30:33;;;;;;;2.17;1.38;;;;;;;8.77;90.60;96109.47;2057591;28;20053;-60
2023/08/08 01:31:36;;;;;;;2.35;1.20;;;;;;;8.72;90.63;96098.44;2049674;28;20411;-60
2023/08/08 01:32:37;;;;;;;2.03;1.35;;;;;;;8.72;90.77;96103.63;2057522;28;20054;-60
2023/08/08 01:33:39;;;;;;;1.95;1.10;;;;;;;8.76;90.92;96109.50;2065237;28;20050;-61
2023/08/08 01:34:43;;;;;;;2.05;1.30;;;;;;;8.74;90.92;96111.31;2057644;28;20063;-60
2023/08/08 01:35:50;;;;;;;3.13;1.33;;;;;;;8.69;90.77;96105.47;2057833;28;20045;-60
2023/08/08 01:37:05;;;;;;;3.20;1.58;;;;;;;8.72;91.47;96113.13;2049510;29;20051;-60
2023/08/08 01:38:16;;;;;;;4.18;1.50;;;;;;;8.65;91.13;96101.31;2046139;28;20043;-60
2023/08/08 01:39:22;;;;;;;2.08;1.45;;;;;;;8.64;91.16;96102.22;2050747;28;20062;-60
2023/08/08 01:40:23;;;;;;;2.90;1.30;;;;;;;8.68;90.88;96109.78;2050438;28;20058;-60
2023/08/08 01:41:25;;;;;;;3.45;1.60;;;;;;;8.68;90.88;96108.94;2049256;28;20062;-60
2023/08/08 01:42:28;;;;;;;2.78;1.67;;;;;;;8.66;91.37;96108.16;2041364;29;20165;-60
2023/08/08 01:43:33;;;;;;;2.25;1.30;;;;;;;8.64;91.18;96110.00;2049853;28;20420;-60
2023/08/08 01:44:35;;;;;;;3.75;1.85;;;;;;;8.65;91.70;96111.66;2057678;28;20054;-60
2023/08/08 01:45:36;;;;;;;2.70;1.30;;;;;;;8.62;91.65;96107.44;2057509;28;20054;-60
2023/08/08 01:46:38;;;;;;;7.15;1.70;;;;;;;8.63;91.54;96098.75;2057392;28;20107;-60
2023/08/08 01:47:39;;;;;;;3.90;1.52;;;;;;;8.63;91.32;96103.94;2057623;28;20058;-60
2023/08/08 01:48:44;;;;;;;2.42;1.50;;;;;;;8.56;91.22;96092.16;2065107;28;20057;-60
2023/08/08 01:49:46;;;;;;;3.53;1.67;;;;;;;8.60;91.55;96104.91;2056974;28;20434;-60
2023/08/08 01:50:47;;;;;;;4.97;1.65;;;;;;;8.58;92.01;96101.56;2057234;28;20050;-60
2023/08/08 01:51:50;;;;;;;2.05;1.30;;;;;;;8.61;92.00;96098.00;2056911;28;20276;-61
2023/08/08 01:52:51;;;;;;;2.65;1.38;;;;;;;8.60;91.52;96094.53;2057613;28;20066;-60
2023/08/08 01:53:55;;;;;;;3.55;1.50;;;;;;;8.63;91.35;96096.19;2057364;28;20054;-60
2023/08/08 01:54:56;;;;;;;2.22;1.40;;;;;;;8.61;91.26;96088.47;2057190;28;20100;-60
2023/08/08 01:55:58;;;;;;;3.25;1.55;;;;;;;8.63;91.07;96093.59;2065791;28;20050;-60
2023/08/08 01:57:00;;;;;;;2.25;1.30;;;;;;;8.63;91.59;96085.81;2065689;28;20051;-60
2023/08/08 01:58:01;;;;;;;4.97;1.35;;;;;;;8.63;91.21;96083.22;2056932;28;20047;-61
2023/08/08 01:59:02;;;;;;;3.05;1.60;;;;;;;8.60;91.23;96080.75;2057489;28;20070;-60
2023/08/08 02:00:06;;;;;;;4.43;1.63;;;;;;;8.66;91.00;96090.03;2065341;28;20426;-61
2023/08/08 02:01:16;;;;;;;3.08;1.60;;;;;;;8.68;91.19;96088.25;2065478;28;20042;-60
2023/08/08 02:02:18;;;;;;;2.88;1.67;;;;;;;8.69;91.35;96087.34;2065983;28;20055;-60
2023/08/08 02:03:19;;;;;;;2.78;1.60;;;;;;;8.69;91.05;96084.78;2065192;28;20054;-60
2023/08/08 02:04:21;;;;;;;3.55;1.52;;;;;;;8.71;91.27;96086.38;2057120;28;20070;-60
2023/08/08 02:05:22;;;;;;;2.60;1.70;;;;;;;8.69;91.21;96083.03;2057248;28;20059;-61
2023/08/08 02:06:23;;;;;;;3.05;1.63;;;;;;;8.76;90.89;96093.97;2065595;28;20054;-60
2023/08/08 02:07:25;;;;;;;4.30;1.45;;;;;;;8.80;90.24;96082.59;2065024;28;20054;-60
2023/08/08 02:08:26;;;;;;;2.88;1.45;;;;;;;8.80;90.38;96083.44;2065082;28;20065;-60
2023/08/08 02:09:27;;;;;;;3.28;1.40;;;;;;;8.78;90.11;96079.22;2057083;28;20066;-60
2023/08/08 02:10:29;;;;;;;3.80;1.52;;;;;;;8.83;90.05;96083.31;2057328;28;20050;-61
2023/08/08 02:11:30;;;;;;;3.42;1.50;;;;;;;8.85;90.45;96083.28;2065391;28;20062;-61
2023/08/08 02:12:31;;;;;;;2.08;1.30;;;;;;;8.86;90.10;96087.53;2065932;28;20054;-61
2023/08/08 02:13:33;;;;;;;5.22;1.63;;;;;;;8.89;89.40;96086.56;2056607;28;20051;-60
2023/08/08 02:14:35;;;;;;;2.60;1.70;;;;;;;8.91;89.00;96090.78;2057479;28;20069;-61
2023/08/08 02:15:36;;;;;;;1.90;1.30;;;;;;;8.93;89.16;96089.00;2057210;28;20055;-61
2023/08/08 02:16:39;;;;;;;3.42;1.63;;;;;;;8.96;89.67;96083.69;2065442;28;20054;-60
2023/08/08 02:17:41;;;;;;;2.55;1.42;;;;;;;8.98;89.10;96078.44;2057263;28;20054;-61
2023/08/08 02:18:42;;;;;;;3.88;1.33;;;;;;;9.00;88.81;96090.41;2057263;28;20051;-60
2023/08/08 02:19:43;;;;;;;3.33;1.40;;;;;;;9.04;88.24;96093.75;2064911;28;20054;-60
2023/08/08 02:20:45;;;;;;;5.05;1.25;;;;;;;9.05;88.22;96082.47;2056491;28;20055;-60
2023/08/08 02:21:46;;;;;;;3.10;1.40;;;;;;;9.03;87.92;96077.38;2049336;29;20059;-60
2023/08/08 02:22:48;;;;;;;3.05;1.75;;;;;;;9.08;88.57;96084.94;2056950;28;20062;-60
2023/08/08 02:23:50;;;;;;;2.47;1.20;;;;;;;9.12;88.02;96083.09;2057262;28;20061;-61
2023/08/08 02:24:51;;;;;;;2.30;1.30;;;;;;;9.15;87.96;96083.81;2057059;28;20058;-61
2023/08/08 02:25:53;;;;;;;4.82;1.50;;;;;;;9.19;87.58;96085.34;2056614;28;20055;-61
2023/08/08 02:26:54;;;;;;;2.08;1.27;;;;;;;9.22;87.87;96079.19;2057314;28;20051;-61
2023/08/08 02:27:56;;;;;;;3.00;1.30;;;;;;;9.19;87.41;96069.81;2056830;28;20051;-60
2023/08/08 02:28:57;;;;;;;2.08;1.40;;;;;;;9.27;86.99;96077.25;2065751;28;20042;-60
2023/08/08 02:29:59;;;;;;;1.92;1.30;;;;;;;9.31;87.37;96081.44;2065421;28;20054;-61
2023/08/08 02:31:00;;;;;;;3.58;1.42;;;;;;;9.32;87.02;96075.34;2065361;28;20046;-61
2023/08/08 02:32:01;;;;;;;4.90;1.45;;;;;;;9.35;86.90;96082.97;2065074;28;20057;-60
2023/08/08 02:33:03;;;;;;;2.38;1.30;;;;;;;9.37;86.26;96085.53;2065609;28;20064;-60
2023/08/08 02:34:04;;;;;;;2.28;1.33;;;;;;;9.38;86.73;96084.59;2065945;28;20057;-60
2023/08/08 02:35:06;;;;;;;2.90;1.45;;;;;;;9.38;86.24;96089.78;2065405;28;20054;-60
2023/08/08 02:36:07;;;;;;;2.65;1.40;;;;;;;9.38;86.76;96082.00;2065487;28;20049;-60
2023/08/08 02:37:09;;;;;;;2.30;1.15;;;;;;;9.39;86.33;96081.97;2065500;28;20042;-60
2023/08/08 02:38:10;;;;;;;2.40;1.20;;;;;;;9.41;86.44;96080.16;2065214;28;20054;-60
2023/08/08 02:39:14;;;;;;;2.25;1.27;;;;;;;9.41;85.96;96079.28;2065294;28;20069;-60
2023/08/08 02:40:15;;;;;;;2.78;1.20;;;;;;;9.47;85.85;96077.31;2056915;28;20046;-60
2023/08/08 02:41:17;;;;;;;2.65;1.20;;;;;;;9.50;85.98;96078.94;2040812;29;20048;-60
2023/08/08 02:42:18;;;;;;;3.25;1.30;;;;;;;9.50;85.45;96079.75;2048746;28;20071;-60
2023/08/08 02:43:19;;;;;;;3.10;1.75;;;;;;;9.52;85.40;96077.13;2064994;28;20065;-61
2023/08/08 02:44:22;;;;;;;3.67;1.50;;;;;;;9.54;85.68;96079.63;2057140;28;20057;-61
2023/08/08 02:45:26;;;;;;;4.97;1.40;;;;;;;9.52;85.56;96084.91;2049016;28;20058;-61
2023/08/08 02:46:27;;;;;;;3.30;1.40;;;;;;;9.53;85.82;96080.53;2057449;28;20055;-60
2023/08/08 02:47:29;;;;;;;3.47;1.40;;;;;;;9.52;85.64;96079.72;2064937;28;20062;-60
2023/08/08 02:48:31;;;;;;;3.83;1.35;;;;;;;9.54;85.32;96079.63;2056445;28;20051;-61
2023/08/08 02:49:33;;;;;;;2.78;1.38;;;;;;;9.54;85.39;96080.47;2047929;28;20055;-60
2023/08/08 02:50:34;;;;;;;2.50;1.20;;;;;;;9.57;85.63;96087.28;2057154;28;20066;-60
2023/08/08 02:51:36;;;;;;;2.05;1.35;;;;;;;9.58;85.80;96084.63;2057287;28;20058;-60
2023/08/08 02:52:38;;;;;;;3.00;1.20;;;;;;;9.61;85.34;96076.72;2049092;28;20047;-60
2023/08/08 02:53:39;;;;;;;3.25;1.10;;;;;;;9.64;84.91;96086.13;2057060;28;20054;-60
2023/08/08 02:54:40;;;;;;;2.10;1.30;;;;;;;9.65;85.40;96087.78;2056667;28;20051;-61
2023/08/08 02:55:42;;;;;;;1.92;1.13;;;;;;;9.65;85.30;96078.28;2057200;28;20057;-60
2023/08/08 02:56:43;;;;;;;2.35;1.42;;;;;;;9.65;85.09;96078.28;2057065;28;20054;-60
2023/08/08 02:57:45;;;;;;;3.88;1.27;;;;;;;9.62;84.71;96077.56;2065121;28;20065;-60
2023/08/08 02:58:47;;;;;;;1.80;1.00;;;;;;;9.67;84.20;96085.97;2056740;28;20113;-61
2023/08/08 02:59:48;;;;;;;3.13;1.52;;;;;;;9.66;84.29;96085.16;2057195;28;20063;-61
2023/08/08 03:00:50;;;;;;;4.03;1.48;;;;;;;9.67;84.52;96086.81;2056834;28;20059;-60
2023/08/08 03:01:52;;;;;;;1.88;1.20;;;;;;;9.67;84.42;96080.81;2057205;28;20084;-61
2023/08/08 03:02:54;;;;;;;2.90;1.27;;;;;;;9.67;84.44;96085.97;2049085;28;20074;-61
2023/08/08 03:03:55;;;;;;;2.83;1.33;;;;;;;9.69;84.72;96084.19;2056506;28;20055;-60
2023/08/08 03:04:58;;;;;;;2.38;1.10;;;;;;;9.70;84.21;96084.13;2057133;28;20055;-60
2023/08/08 03:06:01;;;;;;;2.45;1.20;;;;;;;9.68;84.95;96079.91;2057019;28;20058;-61
2023/08/08 03:07:04;;;;;;;4.95;1.50;;;;;;;9.72;84.52;96081.44;2064855;28;20046;-60
2023/08/08 03:08:07;;;;;;;1.95;1.20;;;;;;;9.72;84.71;96084.03;2056934;28;20070;-60
2023/08/08 03:09:09;;;;;;;3.67;1.45;;;;;;;9.71;84.33;96083.22;2056979;28;20063;-60
2023/08/08 03:10:12;;;;;;;3.88;1.35;;;;;;;9.74;84.40;96089.19;2056789;28;20054;-60
2023/08/08 03:11:14;;;;;;;3.22;1.20;;;;;;;9.74;84.34;96089.19;2057086;28;20050;-61
2023/08/08 03:12:17;;;;;;;3.30;1.30;;;;;;;9.74;84.67;96087.44;2056901;28;20074;-61
2023/08/08 03:13:19;;;;;;;2.28;1.38;;;;;;;9.75;84.14;96083.06;2049316;28;20058;-60
2023/08/08 03:14:22;;;;;;;2.03;1.20;;;;;;;9.76;84.31;96087.38;2049284;28;20078;-60
2023/08/08 03:15:23;;;;;;;2.63;1.27;;;;;;;9.76;84.69;96077.84;2056962;28;20046;-61
2023/08/08 03:16:24;;;;;;;4.35;1.40;;;;;;;9.77;83.86;96076.91;2056668;28;20515;-61
2023/08/08 03:17:27;;;;;;;2.33;1.20;;;;;;;9.79;83.57;96080.28;2056874;28;20046;-60
2023/08/08 03:18:30;;;;;;;2.42;1.00;;;;;;;9.80;83.74;96076.78;2049144;28;20063;-60
2023/08/08 03:19:32;;;;;;;3.00;1.30;;;;;;;9.83;84.35;96071.47;2048931;28;20066;-60
2023/08/08 03:20:35;;;;;;;4.28;1.40;;;;;;;9.83;83.62;96076.66;2056911;28;20077;-60
2023/08/08 03:21:37;;;;;;;4.10;1.10;;;;;;;9.87;83.75;96080.81;2056740;28;20054;-61
2023/08/08 03:22:39;;;;;;;2.78;1.00;;;;;;;9.88;83.62;96076.47;2056808;28;20057;-61
2023/08/08 03:23:42;;;;;;;2.20;1.25;;;;;;;9.90;83.84;96080.66;2057011;28;20055;-61
2023/08/08 03:24:43;;;;;;;2.50;1.10;;;;;;;9.89;83.67;96073.81;2057020;28;20051;-60
2023/08/08 03:25:44;;;;;;;2.08;1.05;;;;;;;9.89;83.04;96076.41;2065479;28;20097;-60
2023/08/08 03:26:46;;;;;;;3.90;1.20;;;;;;;9.91;83.84;96076.31;2056664;28;20058;-60
2023/08/08 03:27:48;;;;;;;3.35;1.30;;;;;;;9.89;83.51;96075.53;2056836;28;20051;-60
2023/08/08 03:28:53;;;;;;;2.70;1.23;;;;;;;9.88;83.95;96074.69;2064817;28;20062;-61
2023/08/08 03:29:59;;;;;;;2.25;1.20;;;;;;;9.84;84.15;96073.16;2058033;28;20438;-61
2023/08/08 03:31:03;;;;;;;2.42;1.20;;;;;;;9.82;83.87;96072.38;2056775;28;20046;-61
2023/08/08 03:32:06;;;;;;;2.13;1.30;;;;;;;9.84;84.25;96074.91;2049048;28;20059;-60
2023/08/08 03:33:07;;;;;;;3.38;1.30;;;;;;;9.85;83.55;96076.59;2056481;28;20398;-60
2023/08/08 03:34:08;;;;;;;2.90;1.38;;;;;;;9.84;83.63;96077.50;2056848;28;20059;-60
2023/08/08 03:35:10;;;;;;;2.53;1.20;;;;;;;9.83;84.56;96070.63;2048996;29;20538;-60
2023/08/08 03:36:13;;;;;;;4.38;1.50;;;;;;;9.77;84.70;96063.94;2056798;28;20463;-60
2023/08/08 03:37:15;;;;;;;2.08;1.45;;;;;;;9.80;84.04;96076.78;2056970;28;20399;-60
2023/08/08 03:38:16;;;;;;;2.28;1.20;;;;;;;9.79;84.88;96071.69;2056288;28;20053;-60
2023/08/08 03:39:18;;;;;;;3.78;1.33;;;;;;;9.79;84.57;96084.66;2056699;28;20059;-61
2023/08/08 03:40:20;;;;;;;2.60;1.40;;;;;;;9.77;84.33;96069.13;2056750;28;20464;-60
2023/08/08 03:41:21;;;;;;;3.15;1.27;;;;;;;9.77;84.42;96071.72;2056761;28;20418;-60
2023/08/08 03:42:24;;;;;;;3.80;1.30;;;;;;;9.76;85.34;96069.22;2056625;28;20095;-60
2023/08/08 03:43:26;;;;;;;2.17;1.00;;;;;;;9.77;84.71;96074.31;2057129;28;20051;-61
2023/08/08 03:44:27;;;;;;;2.75;1.30;;;;;;;9.76;85.15;96075.25;2056837;28;20399;-61
2023/08/08 03:45:29;;;;;;;2.60;1.20;;;;;;;9.76;85.26;96070.06;2056339;28;20462;-60
2023/08/08 03:46:30;;;;;;;2.15;1.00;;;;;;;9.76;85.16;96067.47;2056974;28;20506;-61
2023/08/08 03:47:31;;;;;;;2.67;1.10;;;;;;;9.79;84.76;96066.50;2065331;28;20061;-61
2023/08/08 03:48:33;;;;;;;2.78;1.20;;;;;;;9.79;84.92;96069.91;2057113;28;20047;-60
2023/08/08 03:49:36;;;;;;;3.80;1.20;;;;;;;9.81;85.08;96068.09;2056762;28;20462;-60
2023/08/08 03:50:38;;;;;;;2.72;1.45;;;;;;;9.84;83.60;96069.72;2065513;28;20470;-61
2023/08/08 03:51:39;;;;;;;2.45;1.30;;;;;;;9.87;83.58;96065.25;2066100;28;20498;-60
2023/08/08 03:52:41;;;;;;;3.08;1.27;;;;;;;9.89;84.15;96078.13;2066928;28;20050;-61
2023/08/08 03:53:46;;;;;;;2.40;1.30;;;;;;;9.85;83.37;96055.84;2058245;28;20483;-61
2023/08/08 03:54:47;;;;;;;3.20;1.20;;;;;;;9.91;84.23;96066.78;2057942;28;20051;-60
2023/08/08 03:55:49;;;;;;;5.05;1.30;;;;;;;9.96;83.12;96076.97;2066865;28;20509;-61
2023/08/08 03:56:52;;;;;;;3.30;1.45;;;;;;;9.99;83.11;96070.81;2058089;28;20538;-61
2023/08/08 03:57:55;;;;;;;2.42;1.30;;;;;;;10.01;82.82;96064.63;2058126;28;20050;-60
2023/08/08 03:58:57;;;;;;;4.22;1.40;;;;;;;10.05;82.44;96070.53;2058084;28;20407;-60
2023/08/08 03:59:59;;;;;;;1.77;1.23;;;;;;;10.06;82.82;96060.09;2058141;28;20061;-60
2023/08/08 04:01:01;;;;;;;1.98;1.20;;;;;;;10.06;83.08;96062.69;2058043;28;20102;-61
2023/08/08 04:02:06;;;;;;;2.78;1.05;;;;;;;10.06;83.11;96070.47;2050595;28;20526;-60
2023/08/08 04:03:08;;;;;;;4.00;1.42;;;;;;;10.01;82.55;96049.06;2057669;28;20495;-60
2023/08/08 04:04:09;;;;;;;2.85;1.10;;;;;;;10.07;83.51;96063.53;2065533;28;20510;-61
2023/08/08 04:05:12;;;;;;;2.33;1.13;;;;;;;10.07;82.76;96064.34;2057925;28;20499;-60
2023/08/08 04:06:13;;;;;;;2.70;1.35;;;;;;;10.10;82.83;96068.56;2050585;28;20410;-61
2023/08/08 04:07:15;;;;;;;1.98;1.10;;;;;;;10.12;82.60;96065.00;2058285;28;20050;-61
2023/08/08 04:08:16;;;;;;;2.45;1.27;;;;;;;10.13;82.72;96071.03;2065564;28;20130;-60
2023/08/08 04:09:18;;;;;;;2.60;1.30;;;;;;;10.14;82.27;96067.53;2066141;28;20058;-61
2023/08/08 04:10:19;;;;;;;1.83;1.10;;;;;;;10.13;82.59;96074.50;2066258;28;20054;-61
2023/08/08 04:11:20;;;;;;;1.38;0.90;;;;;;;10.15;82.46;96069.22;2066293;28;20156;-61
2023/08/08 04:12:25;;;;;;;3.67;1.30;;;;;;;10.16;82.62;96071.75;2058214;28;20062;-60
2023/08/08 04:13:28;;;;;;;2.08;1.25;;;;;;;10.18;82.34;96069.06;2050385;28;20051;-61
2023/08/08 04:14:29;;;;;;;2.67;1.50;;;;;;;10.22;82.71;96077.59;2058576;28;20403;-61
2023/08/08 04:15:30;;;;;;;2.80;1.27;;;;;;;10.24;82.61;96073.19;2066828;28;20061;-61
2023/08/08 04:16:42;;;;;;;2.15;1.13;;;;;;;10.26;81.77;96076.53;2058225;28;20055;-61
2023/08/08 04:17:43;;;;;;;2.22;1.00;;;;;;;10.22;82.42;96068.03;2057964;28;20058;-60
2023/08/08 04:18:45;;;;;;;2.13;1.17;;;;;;;10.28;81.83;96075.56;2066842;28;20049;-60
2023/08/08 04:19:47;;;;;;;2.25;1.00;;;;;;;10.30;82.20;96076.34;2066971;28;20065;-60
2023/08/08 04:20:49;;;;;;;2.13;1.30;;;;;;;10.32;82.24;96084.94;2066206;28;20490;-60
2023/08/08 04:21:50;;;;;;;1.73;1.23;;;;;;;10.33;81.27;96080.56;2066139;28;20051;-61
2023/08/08 04:22:51;;;;;;;2.72;1.20;;;;;;;10.36;80.91;96081.25;2057765;28;20055;-60
2023/08/08 04:23:52;;;;;;;2.85;1.48;;;;;;;10.40;81.68;96086.31;2057966;28;20062;-61
2023/08/08 04:24:54;;;;;;;1.70;1.00;;;;;;;10.40;80.79;96079.41;2058757;28;20039;-61
2023/08/08 04:25:55;;;;;;;2.15;1.20;;;;;;;10.44;80.81;96088.72;2066638;28;20039;-60
2023/08/08 04:26:57;;;;;;;2.00;1.33;;;;;;;10.46;80.75;96086.91;2066624;28;20050;-61
2023/08/08 04:27:58;;;;;;;2.60;1.38;;;;;;;10.48;80.47;96092.88;2066364;28;20082;-61
2023/08/08 04:28:59;;;;;;;1.83;1.10;;;;;;;10.49;80.80;96084.16;2066847;28;20066;-60
2023/08/08 04:30:01;;;;;;;3.85;1.10;;;;;;;10.50;80.38;96087.59;2066510;28;20054;-60
2023/08/08 04:31:02;;;;;;;1.90;1.25;;;;;;;10.53;81.01;96096.09;2066923;28;20054;-61
2023/08/08 04:32:04;;;;;;;2.17;1.00;;;;;;;10.50;80.58;96088.41;2066892;28;20455;-61
2023/08/08 04:33:05;;;;;;;2.42;1.08;;;;;;;10.54;80.41;96083.94;2066332;28;20062;-60
2023/08/08 04:34:07;;;;;;;3.65;1.67;;;;;;;10.57;80.62;96086.41;2066714;28;20042;-60
2023/08/08 04:35:08;;;;;;;2.03;1.20;;;;;;;10.59;79.93;96087.19;2065826;28;20046;-60
2023/08/08 04:36:10;;;;;;;2.13;1.10;;;;;;;10.65;79.91;96091.25;2065905;28;20073;-61
2023/08/08 04:37:11;;;;;;;2.03;1.10;;;;;;;10.69;79.02;96087.59;2066521;28;20430;-60
2023/08/08 04:38:16;;;;;;;2.08;1.10;;;;;;;10.69;79.54;96087.59;2066520;28;20502;-61
2023/08/08 04:39:18;;;;;;;1.98;0.98;;;;;;;10.72;79.64;96090.03;2066619;28;20046;-61
2023/08/08 04:40:19;;;;;;;1.63;0.90;;;;;;;10.74;78.74;96089.06;2066049;28;20046;-60
2023/08/08 04:41:20;;;;;;;3.10;1.30;;;;;;;10.77;79.12;96082.88;2066550;28;20049;-60
2023/08/08 04:42:22;;;;;;;4.15;1.38;;;;;;;10.80;78.55;96081.00;2065987;28;20559;-60
2023/08/08 04:43:23;;;;;;;3.88;1.35;;;;;;;10.84;78.70;96086.03;2066040;28;20058;-61
2023/08/08 04:44:24;;;;;;;3.03;1.10;;;;;;;10.85;78.35;96082.53;2066378;28;20057;-61
2023/08/08 04:45:28;;;;;;;2.67;1.15;;;;;;;10.88;78.37;96078.03;2066549;28;20046;-61
2023/08/08 04:46:30;;;;;;;2.78;1.35;;;;;;;10.90;78.23;96083.16;2066499;28;20043;-60
2023/08/08 04:47:31;;;;;;;4.18;1.10;;;;;;;10.90;78.24;96090.94;2065475;28;20057;-61
2023/08/08 04:48:33;;;;;;;1.83;1.00;;;;;;;10.92;78.50;96081.31;2066457;28;20153;-61
2023/08/08 04:49:37;;;;;;;2.38;1.23;;;;;;;10.96;78.30;96080.25;2066527;28;20525;-60
2023/08/08 04:50:40;;;;;;;2.75;1.10;;;;;;;10.95;78.17;96083.78;2065718;28;20058;-60
2023/08/08 04:51:41;;;;;;;2.85;1.15;;;;;;;10.95;78.01;96079.41;2066545;28;20093;-61
2023/08/08 04:52:43;;;;;;;1.65;1.10;;;;;;;10.96;78.75;96080.25;2066642;28;20053;-60
2023/08/08 04:53:47;;;;;;;3.72;1.30;;;;;;;10.94;78.71;96074.31;2065692;28;20058;-60
2023/08/08 04:54:52;;;;;;;3.20;1.40;;;;;;;10.94;77.98;96077.75;2066518;28;20058;-60
2023/08/08 04:56:06;;;;;;;2.78;1.23;;;;;;;10.93;78.37;96077.81;2066292;28;20422;-61